Time;durP1;ratioP1;P1;durP2;ratioP2;P2;SDS_P1;SDS_P2;PMS_P1;PMS_P2;Temp;Humidity;BMP_temperature;BMP_pressure;BME280_temperature;BME280_humidity;BME280_pressure;Samples;Min_cycle;Max_cycle;Signal;HPM_P1;HPM_P2
2021/04/29 00:01:48;;;;;;;12.80;11.60;;;12.00;99.90;;;;;;5010213;28;20219;-65
2021/04/29 00:04:15;;;;;;;14.40;12.83;;;12.00;99.90;;;;;;5010240;28;20175;-65
2021/04/29 00:06:41;;;;;;;13.67;12.23;;;12.00;99.90;;;;;;5010484;28;20252;-66
2021/04/29 00:09:07;;;;;;;13.60;11.90;;;11.90;99.90;;;;;;5010012;28;20521;-66
2021/04/29 00:11:34;;;;;;;14.10;12.17;;;12.00;99.90;;;;;;5010328;28;20209;-65
2021/04/29 00:14:00;;;;;;;14.57;13.13;;;11.90;99.90;;;;;;5009785;28;20549;-65
2021/04/29 00:16:26;;;;;;;14.33;12.90;;;11.90;99.90;;;;;;5010333;28;20449;-66
2021/04/29 00:18:52;;;;;;;13.53;12.23;;;11.90;99.90;;;;;;5010030;28;20442;-65
2021/04/29 00:21:17;;;;;;;13.50;12.37;;;11.90;99.90;;;;;;5009770;28;20584;-65
2021/04/29 00:23:43;;;;;;;12.90;11.70;;;11.90;99.90;;;;;;5010010;28;20179;-65
2021/04/29 00:26:08;;;;;;;14.20;12.70;;;11.90;99.90;;;;;;5010047;28;20660;-66
2021/04/29 00:28:34;;;;;;;13.83;12.43;;;11.90;99.90;;;;;;5010369;28;20171;-66
2021/04/29 00:31:00;;;;;;;13.40;12.10;;;11.90;99.90;;;;;;5009779;28;20214;-66
2021/04/29 00:33:25;;;;;;;13.33;12.03;;;11.90;99.90;;;;;;5009906;28;20185;-66
2021/04/29 00:35:51;;;;;;;14.50;12.97;;;12.00;99.90;;;;;;5010206;28;20233;-66
2021/04/29 00:38:16;;;;;;;16.43;13.73;;;12.00;99.90;;;;;;5010278;28;20175;-66
2021/04/29 00:40:42;;;;;;;15.70;12.70;;;12.00;99.90;;;;;;5009954;28;20185;-66
2021/04/29 00:43:12;;;;;;;15.10;12.40;;;12.00;99.90;;;;;;5009845;28;20266;-66
2021/04/29 00:45:39;;;;;;;14.77;13.40;;;11.90;99.90;;;;;;5009725;28;20454;-65
2021/04/29 00:48:05;;;;;;;14.50;13.10;;;11.90;99.90;;;;;;5004977;28;20549;-66
2021/04/29 00:50:30;;;;;;;13.93;12.73;;;11.90;99.90;;;;;;5003008;28;20529;-65
2021/04/29 00:52:56;;;;;;;15.83;14.23;;;11.90;99.90;;;;;;5010220;28;20430;-66
2021/04/29 00:55:22;;;;;;;15.03;13.53;;;11.90;99.90;;;;;;5009766;28;20183;-66
2021/04/29 00:57:48;;;;;;;14.80;13.50;;;12.00;99.90;;;;;;5009708;28;20814;-66
2021/04/29 01:00:14;;;;;;;14.83;13.50;;;12.00;99.90;;;;;;5010966;28;20440;-66
2021/04/29 01:02:48;;;;;;;13.57;12.37;;;12.10;99.90;;;;;;5013083;28;20465;-66
2021/04/29 01:05:33;;;;;;;13.70;12.40;;;12.10;99.90;;;;;;5013734;28;20997;-66
2021/04/29 01:08:15;;;;;;;12.83;11.73;;;12.10;99.90;;;;;;5013327;28;20470;-65
2021/04/29 01:10:49;;;;;;;11.97;10.97;;;12.20;99.90;;;;;;5012855;28;20907;-66
2021/04/29 01:13:22;;;;;;;13.60;12.20;;;12.20;99.90;;;;;;5012971;28;20444;-66
2021/04/29 01:15:48;;;;;;;14.83;12.73;;;12.30;99.90;;;;;;5013397;28;20430;-66
2021/04/29 01:18:15;;;;;;;11.63;10.53;;;12.30;99.90;;;;;;5013286;28;20491;-66
2021/04/29 01:21:03;;;;;;;9.90;8.50;;;12.30;99.90;;;;;;5013079;28;20465;-66
2021/04/29 01:23:56;;;;;;;10.97;8.90;;;12.30;99.90;;;;;;5008771;28;20971;-66
2021/04/29 01:26:33;;;;;;;9.03;8.20;;;12.30;99.90;;;;;;5005350;28;20581;-65
2021/04/29 01:29:03;;;;;;;8.63;7.83;;;12.30;99.90;;;;;;5012918;28;20854;-66
2021/04/29 01:31:31;;;;;;;8.40;7.70;;;12.40;99.90;;;;;;5012881;28;20454;-66
2021/04/29 01:34:02;;;;;;;8.50;7.80;;;12.40;99.90;;;;;;5013102;28;20804;-66
2021/04/29 01:36:28;;;;;;;9.00;8.07;;;12.40;99.90;;;;;;5013579;28;21063;-66
2021/04/29 01:38:56;;;;;;;9.23;7.40;;;12.40;99.90;;;;;;5013147;28;20438;-66
2021/04/29 01:41:23;;;;;;;7.13;6.53;;;12.30;99.90;;;;;;5012757;28;20462;-66
2021/04/29 01:43:49;;;;;;;7.30;6.70;;;12.30;99.90;;;;;;5012515;28;20803;-66
2021/04/29 01:46:15;;;;;;;6.57;5.97;;;12.30;99.90;;;;;;5012939;28;20460;-65
2021/04/29 01:48:40;;;;;;;7.90;6.83;;;12.20;99.90;;;;;;5012387;28;20437;-65
2021/04/29 01:51:07;;;;;;;6.43;5.87;;;12.30;99.90;;;;;;5012247;28;20203;-66
2021/04/29 01:53:33;;;;;;;5.57;5.13;;;12.30;99.90;;;;;;5012597;28;20261;-66
2021/04/29 01:55:59;;;;;;;6.10;5.60;;;12.20;99.90;;;;;;5012142;28;20956;-66
2021/04/29 01:58:25;;;;;;;5.23;4.73;;;12.30;99.90;;;;;;5012354;28;20589;-65
2021/04/29 02:00:51;;;;;;;5.17;4.77;;;12.20;99.90;;;;;;5011899;28;20554;-66
2021/04/29 02:03:16;;;;;;;4.87;4.47;;;12.20;99.90;;;;;;5012441;28;20183;-66
2021/04/29 02:05:42;;;;;;;4.33;3.93;;;12.20;99.90;;;;;;5011679;28;20441;-66
2021/04/29 02:08:08;;;;;;;3.57;3.30;;;12.20;99.90;;;;;;5012519;28;20209;-66
2021/04/29 02:10:33;;;;;;;3.90;3.60;;;12.20;99.90;;;;;;5012145;28;20566;-66
2021/04/29 02:13:00;;;;;;;3.20;2.90;;;12.20;99.90;;;;;;5011785;28;20755;-65
2021/04/29 02:15:30;;;;;;;3.10;2.90;;;12.20;99.90;;;;;;5012202;28;20179;-65
2021/04/29 02:18:00;;;;;;;2.77;2.57;;;12.30;99.90;;;;;;5011317;28;20445;-66
2021/04/29 02:20:30;;;;;;;2.40;2.20;;;12.30;99.90;;;;;;5012125;28;20434;-66
2021/04/29 02:22:56;;;;;;;2.93;2.50;;;12.20;99.90;;;;;;5012258;28;20434;-66
2021/04/29 02:25:26;;;;;;;2.90;2.60;;;12.20;99.90;;;;;;5010008;28;20433;-66
2021/04/29 02:27:52;;;;;;;2.53;2.27;;;12.20;99.90;;;;;;5011738;28;20461;-66
2021/04/29 02:30:18;;;;;;;2.03;1.93;;;12.10;99.90;;;;;;5011409;28;20425;-66
2021/04/29 02:32:44;;;;;;;3.30;2.30;;;12.10;99.90;;;;;;5011597;28;20489;-66
2021/04/29 02:35:13;;;;;;;2.10;2.00;;;12.10;99.90;;;;;;5011809;28;20468;-65
2021/04/29 02:37:39;;;;;;;2.00;1.90;;;12.10;99.90;;;;;;5011079;28;20545;-67
2021/04/29 02:40:05;;;;;;;2.43;2.23;;;12.10;99.90;;;;;;5011716;28;20517;-65
2021/04/29 02:42:32;;;;;;;2.40;2.20;;;12.10;99.90;;;;;;5011815;28;21105;-66
2021/04/29 02:44:58;;;;;;;2.30;1.93;;;12.00;99.90;;;;;;5011686;28;20450;-66
2021/04/29 02:47:24;;;;;;;1.97;1.87;;;12.00;99.90;;;;;;5011168;28;20469;-67
2021/04/29 02:49:49;;;;;;;2.30;2.10;;;12.00;99.90;;;;;;5009959;28;20441;-66
2021/04/29 02:52:15;;;;;;;2.10;1.80;;;12.00;99.90;;;;;;5011716;28;20779;-66
2021/04/29 02:54:42;;;;;;;2.10;2.00;;;12.00;99.90;;;;;;5011567;28;20191;-66
2021/04/29 02:57:07;;;;;;;4.50;4.10;;;12.00;99.90;;;;;;5011277;28;20434;-65
2021/04/29 02:59:39;;;;;;;2.30;2.10;;;12.00;99.90;;;;;;5011198;28;20442;-65
2021/04/29 03:02:05;;;;;;;2.30;2.10;;;12.00;99.90;;;;;;5001538;28;20205;-66
2021/04/29 03:04:30;;;;;;;1.93;1.50;;;11.90;99.90;;;;;;5011420;28;20437;-66
2021/04/29 03:06:56;;;;;;;1.80;1.53;;;11.80;99.90;;;;;;5011380;28;20233;-66
2021/04/29 03:09:21;;;;;;;1.40;1.30;;;11.70;99.90;;;;;;5011352;28;20732;-65
2021/04/29 03:11:47;;;;;;;1.70;1.60;;;11.70;99.90;;;;;;5010905;28;20273;-66
2021/04/29 03:14:12;;;;;;;1.77;1.67;;;11.70;99.90;;;;;;5011498;28;20182;-66
2021/04/29 03:16:38;;;;;;;1.90;1.70;;;11.60;99.90;;;;;;5011242;28;20274;-66
2021/04/29 03:19:03;;;;;;;1.80;1.70;;;11.60;99.90;;;;;;5011438;28;20209;-65
2021/04/29 03:21:29;;;;;;;2.13;1.47;;;11.60;99.90;;;;;;5010481;28;20194;-66
2021/04/29 03:23:54;;;;;;;1.60;1.50;;;11.60;99.90;;;;;;5010052;28;20274;-66
2021/04/29 03:26:20;;;;;;;2.20;1.33;;;11.50;99.90;;;;;;5010874;28;20249;-66
2021/04/29 03:28:45;;;;;;;1.70;1.57;;;11.50;99.90;;;;;;5010664;28;20194;-66
2021/04/29 03:31:11;;;;;;;2.23;2.13;;;11.50;99.90;;;;;;5010921;28;20195;-66
2021/04/29 03:33:36;;;;;;;1.40;1.30;;;11.60;99.90;;;;;;5010741;28;20175;-66
2021/04/29 03:36:02;;;;;;;2.10;1.60;;;11.60;99.90;;;;;;5010902;28;20182;-65
2021/04/29 03:38:28;;;;;;;2.47;1.67;;;11.50;99.90;;;;;;5010889;28;20224;-65
2021/04/29 03:40:53;;;;;;;1.63;1.53;;;11.50;99.90;;;;;;5009682;28;20197;-66
2021/04/29 03:43:19;;;;;;;2.33;1.20;;;11.50;99.90;;;;;;5010848;28;20574;-66
2021/04/29 03:45:44;;;;;;;1.43;1.33;;;11.50;99.90;;;;;;5009972;28;20229;-65
2021/04/29 03:48:10;;;;;;;1.33;1.13;;;11.40;99.90;;;;;;5010773;28;20206;-66
2021/04/29 03:50:35;;;;;;;1.80;1.20;;;11.40;99.90;;;;;;5009878;28;20175;-65
2021/04/29 03:53:01;;;;;;;1.47;1.20;;;11.40;99.90;;;;;;5010523;28;20187;-66
2021/04/29 03:55:27;;;;;;;1.53;1.43;;;11.40;99.90;;;;;;5010106;28;20182;-66
2021/04/29 03:57:52;;;;;;;3.10;1.30;;;11.30;99.90;;;;;;5010357;28;20304;-66
2021/04/29 04:00:18;;;;;;;1.30;1.20;;;11.40;99.90;;;;;;5010061;28;20185;-66
2021/04/29 04:02:44;;;;;;;2.00;1.70;;;11.30;99.90;;;;;;5010654;28;20203;-66
2021/04/29 04:05:10;;;;;;;2.60;2.03;;;11.30;99.90;;;;;;5010352;28;20488;-65
2021/04/29 04:07:36;;;;;;;3.17;2.70;;;11.40;99.90;;;;;;5010199;28;20292;-66
2021/04/29 04:10:02;;;;;;;1.50;1.40;;;11.40;99.90;;;;;;5010222;28;20530;-66
2021/04/29 04:12:28;;;;;;;1.37;1.20;;;11.40;99.90;;;;;;5010429;28;20724;-65
2021/04/29 04:14:53;;;;;;;1.90;1.37;;;11.50;99.90;;;;;;5009720;28;20529;-66
2021/04/29 04:17:19;;;;;;;2.93;1.10;;;11.40;99.90;;;;;;5010147;28;20262;-66
2021/04/29 04:19:44;;;;;;;1.30;1.20;;;11.40;99.90;;;;;;5009496;28;20179;-66
2021/04/29 04:22:10;;;;;;;2.47;1.10;;;11.40;99.90;;;;;;5010259;28;20210;-66
2021/04/29 04:24:35;;;;;;;1.90;1.67;;;11.30;99.90;;;;;;5010509;28;20183;-66
2021/04/29 04:27:01;;;;;;;2.33;1.40;;;11.30;99.90;;;;;;5010368;28;20244;-66
2021/04/29 04:29:26;;;;;;;1.60;1.47;;;11.30;99.90;;;;;;5010313;28;20249;-66
2021/04/29 04:31:52;;;;;;;2.13;1.43;;;11.40;99.90;;;;;;5010402;28;20552;-66
2021/04/29 04:34:18;;;;;;;3.30;2.30;;;11.40;99.90;;;;;;5010242;28;20743;-66
2021/04/29 04:36:43;;;;;;;1.70;1.60;;;11.40;99.90;;;;;;5014566;28;20811;-66
2021/04/29 04:39:09;;;;;;;1.87;1.77;;;11.40;99.90;;;;;;5014244;28;20175;-66
2021/04/29 04:41:34;;;;;;;1.67;1.57;;;11.40;99.90;;;;;;5014410;28;20213;-66
2021/04/29 04:44:00;;;;;;;2.50;2.30;;;11.40;99.90;;;;;;5014342;28;20261;-66
2021/04/29 04:46:25;;;;;;;2.30;2.10;;;11.50;99.90;;;;;;5014361;28;20332;-66
2021/04/29 04:48:51;;;;;;;24.13;2.30;;;11.50;99.90;;;;;;5014187;28;20179;-66
2021/04/29 04:51:17;;;;;;;2.30;2.10;;;11.60;99.90;;;;;;5013718;28;20202;-65
2021/04/29 04:53:42;;;;;;;3.67;2.20;;;11.60;99.90;;;;;;5014014;28;20257;-66
2021/04/29 04:56:08;;;;;;;2.33;2.13;;;11.50;99.90;;;;;;5013936;28;20225;-66
2021/04/29 04:58:33;;;;;;;2.30;2.10;;;11.50;99.90;;;;;;5013979;28;20175;-66
2021/04/29 05:00:59;;;;;;;2.63;2.43;;;11.60;99.90;;;;;;5013133;28;20201;-66
2021/04/29 05:03:26;;;;;;;2.70;2.50;;;11.60;99.90;;;;;;5013718;28;20171;-65
2021/04/29 05:05:52;;;;;;;2.77;2.57;;;11.70;99.90;;;;;;5013381;28;20240;-66
2021/04/29 05:08:17;;;;;;;2.53;2.33;;;11.70;99.90;;;;;;5013811;28;20849;-67
2021/04/29 05:10:43;;;;;;;2.93;2.40;;;11.80;99.90;;;;;;5013437;28;20179;-66
2021/04/29 05:13:09;;;;;;;4.57;4.10;;;11.90;99.90;;;;;;5013817;28;20187;-66
2021/04/29 05:15:35;;;;;;;3.10;2.90;;;11.90;99.90;;;;;;5013490;28;20653;-66
2021/04/29 05:18:01;;;;;;;3.67;3.20;;;11.90;99.90;;;;;;5013446;28;20182;-66
2021/04/29 05:20:28;;;;;;;4.00;3.10;;;11.90;99.90;;;;;;5013455;28;20936;-66
2021/04/29 05:22:53;;;;;;;3.40;3.10;;;11.90;99.90;;;;;;5013662;28;20426;-66
2021/04/29 05:25:22;;;;;;;4.33;3.90;;;12.00;99.90;;;;;;5013277;28;20961;-66
2021/04/29 05:27:48;;;;;;;5.70;2.93;;;12.00;99.90;;;;;;5016412;28;20210;-65
2021/04/29 05:30:14;;;;;;;7.67;5.33;;;12.10;99.90;;;;;;5012970;28;20425;-65
2021/04/29 05:32:40;;;;;;;3.60;3.13;;;11.90;99.90;;;;;;5012974;28;20452;-65
2021/04/29 05:35:06;;;;;;;4.90;3.70;;;11.80;99.90;;;;;;5013123;28;20478;-65
2021/04/29 05:37:32;;;;;;;4.50;4.10;;;11.80;99.90;;;;;;5020613;23;20603;-62
2021/04/29 05:39:57;;;;;;;8.10;3.67;;;11.70;99.90;;;;;;4971406;28;20439;-62
2021/04/29 05:42:23;;;;;;;3.93;3.63;;;11.60;99.90;;;;;;4973429;28;20672;-63
2021/04/29 05:44:48;;;;;;;11.10;4.40;;;11.50;99.90;;;;;;4971052;28;20669;-62
2021/04/29 05:47:14;;;;;;;7.30;4.07;;;11.50;99.90;;;;;;4972675;28;20223;-62
2021/04/29 05:49:42;;;;;;;4.27;3.60;;;11.50;99.90;;;;;;4970683;28;20208;-64
2021/04/29 05:52:08;;;;;;;7.13;3.70;;;11.60;99.90;;;;;;4972624;28;20593;-65
2021/04/29 05:54:35;;;;;;;6.93;3.77;;;11.60;99.90;;;;;;4967202;28;20824;-64
2021/04/29 05:57:01;;;;;;;4.37;3.97;;;11.60;99.90;;;;;;4973372;28;20443;-65
2021/04/29 05:59:26;;;;;;;4.90;3.87;;;11.70;99.90;;;;;;4972578;28;20428;-64
2021/04/29 06:01:52;;;;;;;6.80;3.43;;;11.80;99.90;;;;;;4972023;28;20794;-65
2021/04/29 06:04:17;;;;;;;3.67;3.37;;;11.70;99.90;;;;;;4972647;28;20242;-64
2021/04/29 06:06:45;;;;;;;3.87;3.57;;;11.70;99.90;;;;;;4973627;28;20713;-65
2021/04/29 06:09:11;;;;;;;5.93;3.87;;;11.70;99.90;;;;;;4972480;28;20186;-65
2021/04/29 06:11:36;;;;;;;4.40;3.67;;;11.80;99.90;;;;;;4973411;28;20964;-64
2021/04/29 06:14:03;;;;;;;4.03;3.70;;;11.80;99.90;;;;;;4973654;28;20267;-65
2021/04/29 06:16:28;;;;;;;4.60;4.20;;;11.90;99.90;;;;;;4972974;28;20215;-64
2021/04/29 06:18:54;;;;;;;4.33;4.00;;;11.90;99.90;;;;;;4973116;28;20439;-62
2021/04/29 06:21:19;;;;;;;5.00;4.60;;;11.80;99.90;;;;;;4969534;28;20176;-62
2021/04/29 06:23:45;;;;;;;6.60;4.87;;;11.80;99.90;;;;;;4972868;28;20184;-63
2021/04/29 06:26:10;;;;;;;5.17;4.33;;;11.90;99.90;;;;;;4950011;28;20592;-62
2021/04/29 06:28:36;;;;;;;7.27;5.00;;;11.90;99.90;;;;;;4951919;28;20204;-62
2021/04/29 06:31:02;;;;;;;5.03;4.40;;;11.90;99.90;;;;;;4972258;28;20183;-63
2021/04/29 06:33:28;;;;;;;5.17;4.63;;;12.00;99.90;;;;;;4972197;28;20181;-62
2021/04/29 06:35:54;;;;;;;5.97;4.73;;;12.10;99.90;;;;;;4968301;28;20478;-63
2021/04/29 06:38:20;;;;;;;5.70;5.00;;;12.20;99.90;;;;;;4971608;28;20173;-62
2021/04/29 06:40:45;;;;;;;5.80;5.20;;;12.30;99.90;;;;;;4968085;28;20450;-62
2021/04/29 06:43:11;;;;;;;6.73;6.13;;;12.40;99.90;;;;;;4973091;28;20180;-62
2021/04/29 06:45:37;;;;;;;6.73;5.77;;;12.50;99.90;;;;;;4969362;28;20180;-62
2021/04/29 06:48:03;;;;;;;6.37;5.80;;;12.60;99.90;;;;;;4972460;28;20507;-62
2021/04/29 06:50:28;;;;;;;9.03;6.87;;;12.70;99.90;;;;;;4972343;28;20263;-62
2021/04/29 06:52:54;;;;;;;9.60;5.43;;;12.80;99.90;;;;;;4972313;28;21004;-63
2021/04/29 06:55:20;;;;;;;6.13;5.57;;;12.90;99.90;;;;;;4968974;28;20181;-62
2021/04/29 06:57:45;;;;;;;7.40;5.53;;;13.10;99.90;;;;;;4972113;28;20204;-62
2021/04/29 07:00:11;;;;;;;6.30;5.70;;;13.20;99.90;;;;;;4971912;28;20172;-62
2021/04/29 07:02:37;;;;;;;6.47;5.80;;;13.30;99.90;;;;;;4972298;28;20295;-62
2021/04/29 07:05:03;;;;;;;6.20;5.70;;;13.60;99.90;;;;;;4969362;28;20999;-63
2021/04/29 07:07:29;;;;;;;6.93;5.90;;;13.90;99.90;;;;;;4971476;28;20302;-62
2021/04/29 07:09:54;;;;;;;6.90;6.20;;;14.20;99.90;;;;;;4971708;28;20546;-62
2021/04/29 07:12:20;;;;;;;7.07;6.20;;;14.20;99.90;;;;;;4971860;28;20176;-62
2021/04/29 07:14:46;;;;;;;6.90;5.97;;;14.20;99.90;;;;;;4971980;28;20180;-62
2021/04/29 07:17:12;;;;;;;6.63;6.10;;;14.10;99.90;;;;;;4968824;28;20196;-62
2021/04/29 07:19:37;;;;;;;9.23;7.07;;;14.10;99.90;;;;;;4970343;28;20526;-63
2021/04/29 07:22:03;;;;;;;8.03;6.57;;;14.10;99.90;;;;;;4971241;28;20188;-62
2021/04/29 07:24:28;;;;;;;7.70;7.00;;;14.10;99.90;;;;;;4971839;28;20176;-62
2021/04/29 07:26:54;;;;;;;8.30;6.20;;;14.10;99.90;;;;;;4966961;28;20775;-62
2021/04/29 07:29:19;;;;;;;7.43;6.23;;;14.20;99.90;;;;;;4971564;28;20235;-62
2021/04/29 07:31:45;;;;;;;6.77;6.00;;;14.30;99.90;;;;;;4961865;28;20240;-62
2021/04/29 07:34:12;;;;;;;7.10;6.00;;;14.40;99.90;;;;;;4968222;28;20177;-62
2021/04/29 07:36:38;;;;;;;8.80;7.67;;;14.50;99.90;;;;;;4967420;28;20204;-63
2021/04/29 07:39:05;;;;;;;8.57;6.43;;;14.40;99.90;;;;;;4971800;28;20482;-62
2021/04/29 07:41:31;;;;;;;6.23;5.63;;;14.30;99.90;;;;;;4970853;28;20180;-63
2021/04/29 07:44:01;;;;;;;8.83;7.07;;;14.30;99.90;;;;;;4971746;28;20435;-62
2021/04/29 07:46:26;;;;;;;8.53;7.73;;;14.50;99.90;;;;;;4966083;28;20464;-62
2021/04/29 07:48:52;;;;;;;8.23;6.07;;;15.00;99.90;;;;;;4964474;28;20470;-62
2021/04/29 07:51:18;;;;;;;6.70;6.20;;;15.50;99.90;;;;;;4962900;28;20181;-62
2021/04/29 07:53:43;;;;;;;6.57;5.97;;;15.70;99.90;;;;;;4971610;28;20175;-62
2021/04/29 07:56:09;;;;;;;8.67;7.97;;;15.70;99.90;;;;;;4968223;28;20184;-62
2021/04/29 07:58:34;;;;;;;10.20;8.20;;;15.80;99.90;;;;;;4971294;28;20259;-62
2021/04/29 08:01:00;;;;;;;17.97;10.23;;;15.70;99.90;;;;;;4970737;28;20203;-62
2021/04/29 08:03:25;;;;;;;10.80;8.10;;;15.90;99.90;;;;;;4971321;28;20184;-62
2021/04/29 08:05:51;;;;;;;9.50;8.60;;;16.10;99.90;;;;;;4965846;28;20184;-63
2021/04/29 08:08:18;;;;;;;13.00;8.50;;;16.30;99.90;;;;;;4971356;28;20192;-62
2021/04/29 08:10:43;;;;;;;13.53;10.20;;;16.30;99.90;;;;;;4970283;28;20178;-63
2021/04/29 08:13:11;;;;;;;10.03;8.83;;;16.50;99.90;;;;;;4971584;28;20518;-62
2021/04/29 08:15:37;;;;;;;9.43;8.57;;;16.60;99.90;;;;;;4967717;28;20211;-62
2021/04/29 08:18:03;;;;;;;9.73;8.50;;;16.80;99.90;;;;;;4970819;28;20506;-62
2021/04/29 08:20:28;;;;;;;9.97;9.17;;;17.00;99.90;;;;;;4966762;28;20439;-63
2021/04/29 08:22:54;;;;;;;10.00;9.13;;;17.50;99.90;;;;;;4961234;28;20195;-63
2021/04/29 08:25:20;;;;;;;11.93;8.73;;;17.90;99.90;;;;;;4964309;28;20196;-63
2021/04/29 08:27:45;;;;;;;10.90;10.00;;;17.90;99.90;;;;;;4967601;28;20592;-62
2021/04/29 08:30:13;;;;;;;10.60;9.50;;;17.50;99.90;;;;;;4965633;28;20311;-62
2021/04/29 08:32:38;;;;;;;9.67;8.80;;;17.00;99.90;;;;;;4965954;28;20180;-63
2021/04/29 08:35:05;;;;;;;9.93;9.10;;;17.10;99.90;;;;;;4965523;28;20574;-64
2021/04/29 08:37:31;;;;;;;10.63;8.87;;;17.30;99.90;;;;;;4967492;28;20653;-64
2021/04/29 08:39:56;;;;;;;10.10;9.20;;;17.60;99.90;;;;;;4967950;28;20471;-63
2021/04/29 08:42:26;;;;;;;12.40;11.30;;;17.50;99.90;;;;;;4968145;28;20929;-63
2021/04/29 08:44:51;;;;;;;11.30;10.10;;;17.40;99.90;;;;;;4966694;28;20184;-64
2021/04/29 08:47:17;;;;;;;12.00;10.87;;;17.40;99.90;;;;;;4964949;28;20475;-64
2021/04/29 08:49:43;;;;;;;10.80;9.90;;;17.60;99.90;;;;;;4967830;28;20200;-64
2021/04/29 08:52:09;;;;;;;10.00;9.13;;;17.80;99.90;;;;;;4967399;28;20263;-63
2021/04/29 08:54:37;;;;;;;11.43;10.20;;;18.00;99.90;;;;;;4968206;28;20180;-63
2021/04/29 08:57:03;;;;;;;9.30;8.50;;;18.40;99.90;;;;;;4964445;28;20208;-64
2021/04/29 08:59:29;;;;;;;11.70;8.93;;;19.00;99.90;;;;;;4967235;28;20443;-64
2021/04/29 09:01:55;;;;;;;10.13;9.23;;;19.60;99.60;;;;;;4967454;28;20527;-64
2021/04/29 09:04:21;;;;;;;9.73;8.87;;;19.70;97.60;;;;;;4967251;28;20184;-63
2021/04/29 09:06:48;;;;;;;12.13;10.70;;;19.10;99.00;;;;;;4964711;28;20463;-63
2021/04/29 09:09:18;;;;;;;11.33;10.10;;;18.80;98.40;;;;;;4970235;28;20487;-64
2021/04/29 09:11:52;;;;;;;10.33;9.33;;;18.30;99.00;;;;;;4970558;28;20467;-64
2021/04/29 09:14:32;;;;;;;9.87;8.70;;;17.90;99.90;;;;;;4970269;28;20495;-63
2021/04/29 09:16:58;;;;;;;10.10;9.20;;;17.50;99.90;;;;;;4967360;28;20471;-63
2021/04/29 09:19:29;;;;;;;9.60;8.77;;;17.00;99.90;;;;;;4970091;28;20435;-64
2021/04/29 09:21:56;;;;;;;10.60;9.37;;;16.80;99.90;;;;;;4971511;28;20939;-64
2021/04/29 09:24:39;;;;;;;10.23;9.23;;;16.90;99.90;;;;;;4974756;28;20439;-64
2021/04/29 09:27:16;;;;;;;8.37;7.73;;;17.30;99.90;;;;;;4969401;28;20466;-64
2021/04/29 09:29:59;;;;;;;11.17;8.90;;;17.20;99.90;;;;;;4968737;28;20454;-64
2021/04/29 09:32:26;;;;;;;9.83;8.90;;;17.20;99.90;;;;;;4973981;28;20426;-63
2021/04/29 09:34:52;;;;;;;12.17;10.27;;;16.90;99.90;;;;;;4972524;28;20428;-64
2021/04/29 09:37:29;;;;;;;10.70;9.70;;;16.30;99.90;;;;;;4969920;28;20533;-64
2021/04/29 09:39:54;;;;;;;10.10;9.10;;;15.10;99.90;;;;;;4973696;28;20176;-64
2021/04/29 09:42:30;;;;;;;11.37;10.40;;;14.00;99.90;;;;;;4973531;28;20494;-64
2021/04/29 09:44:57;;;;;;;12.50;10.73;;;13.40;99.90;;;;;;4972219;28;20502;-64
2021/04/29 09:47:22;;;;;;;12.43;11.20;;;13.00;99.90;;;;;;4970776;28;20470;-63
2021/04/29 09:49:48;;;;;;;12.93;11.53;;;12.80;99.90;;;;;;4972985;28;20447;-63
2021/04/29 09:52:24;;;;;;;11.87;10.77;;;12.90;99.90;;;;;;4973179;28;20717;-64
2021/04/29 09:54:51;;;;;;;11.40;10.30;;;12.80;99.90;;;;;;4968371;28;20203;-64
2021/04/29 09:57:24;;;;;;;13.20;11.80;;;12.80;99.90;;;;;;4971225;28;20467;-63
2021/04/29 09:59:57;;;;;;;14.80;13.33;;;13.40;99.90;;;;;;4973219;28;20436;-63
2021/04/29 10:02:23;;;;;;;13.30;12.00;;;14.00;99.90;;;;;;4972037;28;20435;-64
2021/04/29 10:04:50;;;;;;;11.53;10.47;;;14.90;99.90;;;;;;4972420;28;20446;-63
2021/04/29 10:07:15;;;;;;;10.97;9.90;;;16.40;99.90;;;;;;4970974;28;20840;-63
2021/04/29 10:09:43;;;;;;;10.37;9.37;;;18.40;99.90;;;;;;4973055;28;20423;-63
2021/04/29 10:12:14;;;;;;;8.90;8.20;;;19.40;99.90;;;;;;4973568;28;20164;-63
2021/04/29 10:14:52;;;;;;;10.17;9.17;;;19.80;99.90;;;;;;4971014;28;20438;-62
2021/04/29 10:17:19;;;;;;;13.20;9.40;;;20.60;99.90;;;;;;4971026;28;20964;-63
2021/04/29 10:19:50;;;;;;;9.83;8.93;;;21.60;99.90;;;;;;4973932;28;20485;-61
2021/04/29 10:22:17;;;;;;;8.70;8.00;;;21.70;99.90;;;;;;4973842;28;20431;-61
2021/04/29 10:24:45;;;;;;;10.20;9.30;;;21.30;99.90;;;;;;4973764;28;20424;-63
2021/04/29 10:27:26;;;;;;;8.47;7.77;;;21.60;98.90;;;;;;4969660;28;20466;-64
2021/04/29 10:30:06;;;;;;;8.87;8.27;;;21.00;99.40;;;;;;4973314;28;20412;-64
2021/04/29 10:32:33;;;;;;;8.57;7.60;;;20.20;99.40;;;;;;4973086;28;20473;-64
2021/04/29 10:34:59;;;;;;;8.97;8.07;;;20.70;99.90;;;;;;4971212;28;21044;-64
2021/04/29 10:37:27;;;;;;;8.80;8.00;;;20.90;95.50;;;;;;4971821;28;20550;-64
2021/04/29 10:39:57;;;;;;;8.43;7.73;;;19.80;97.80;;;;;;4972706;28;20212;-63
2021/04/29 10:42:25;;;;;;;7.80;7.00;;;18.70;98.20;;;;;;4973309;28;20478;-64
2021/04/29 10:44:53;;;;;;;7.03;6.30;;;18.30;99.40;;;;;;4972130;28;20427;-64
2021/04/29 10:47:25;;;;;;;8.67;7.50;;;18.20;98.80;;;;;;4970865;28;20463;-63
2021/04/29 10:49:51;;;;;;;9.37;8.40;;;18.30;98.40;;;;;;4972891;28;20453;-64
2021/04/29 10:52:17;;;;;;;7.07;6.47;;;18.80;98.70;;;;;;4972745;28;20424;-64
2021/04/29 10:54:53;;;;;;;7.30;6.60;;;20.60;96.40;;;;;;4973202;28;20426;-63
2021/04/29 10:57:19;;;;;;;8.90;7.57;;;21.00;93.60;;;;;;4970897;28;20719;-64
2021/04/29 10:59:47;;;;;;;7.70;7.00;;;20.90;92.20;;;;;;4972934;28;20503;-63
2021/04/29 11:02:36;;;;;;;6.90;6.30;;;21.10;91.70;;;;;;4973123;28;20948;-63
2021/04/29 11:05:07;;;;;;;7.00;6.30;;;22.10;89.60;;;;;;4970618;28;20424;-65
2021/04/29 11:07:44;;;;;;;8.20;6.90;;;23.00;81.80;;;;;;4972271;28;21003;-63
2021/04/29 11:10:12;;;;;;;7.20;6.50;;;22.40;81.00;;;;;;4972660;28;20802;-64
2021/04/29 11:12:52;;;;;;;6.20;5.60;;;21.90;84.10;;;;;;4972655;28;20980;-64
2021/04/29 11:15:33;;;;;;;7.47;6.73;;;23.60;80.00;;;;;;4969748;28;20412;-64
2021/04/29 11:18:09;;;;;;;6.83;6.20;;;26.40;68.20;;;;;;4972034;28;20462;-65
2021/04/29 11:20:54;;;;;;;8.10;6.37;;;26.20;66.70;;;;;;4972420;28;20420;-64
2021/04/29 11:23:21;;;;;;;6.17;5.43;;;27.50;58.00;;;;;;4972623;28;20411;-65
2021/04/29 11:25:47;;;;;;;5.67;4.83;;;26.40;54.80;;;;;;4969631;28;20446;-64
2021/04/29 11:28:14;;;;;;;5.43;4.47;;;26.30;55.00;;;;;;4971975;28;20459;-63
2021/04/29 11:30:40;;;;;;;5.50;5.10;;;27.30;55.30;;;;;;4972467;28;21175;-64
2021/04/29 11:33:10;;;;;;;7.90;5.33;;;27.60;55.00;;;;;;4972423;28;20531;-64
2021/04/29 11:35:37;;;;;;;5.30;4.90;;;25.40;55.00;;;;;;4969676;28;20502;-62
2021/04/29 11:38:06;;;;;;;5.80;5.33;;;23.30;57.90;;;;;;4971895;28;20463;-63
2021/04/29 11:40:34;;;;;;;6.50;5.90;;;21.30;61.70;;;;;;4972522;28;20436;-63
2021/04/29 11:43:01;;;;;;;5.30;4.50;;;20.40;66.60;;;;;;4972318;28;20436;-63
2021/04/29 11:45:41;;;;;;;6.93;5.00;;;19.60;69.10;;;;;;4968754;28;20439;-62
2021/04/29 11:48:11;;;;;;;6.43;5.20;;;19.10;72.10;;;;;;4971556;28;20471;-63
2021/04/29 11:50:50;;;;;;;5.53;4.53;;;18.20;76.10;;;;;;4971797;28;20416;-63
2021/04/29 11:53:18;;;;;;;7.17;5.60;;;17.70;79.40;;;;;;4972242;28;20450;-63
2021/04/29 11:55:48;;;;;;;6.00;5.50;;;17.40;83.30;;;;;;4969042;28;20436;-63
2021/04/29 11:58:17;;;;;;;5.43;4.93;;;17.20;83.70;;;;;;4971533;28;20424;-64
2021/04/29 12:00:53;;;;;;;5.60;5.10;;;17.20;86.30;;;;;;4970248;28;20562;-64
2021/04/29 12:03:20;;;;;;;8.20;4.50;;;17.10;84.80;;;;;;4971834;28;20939;-63
2021/04/29 12:05:49;;;;;;;5.53;4.93;;;17.80;86.50;;;;;;4961053;28;20446;-63
2021/04/29 12:08:21;;;;;;;4.83;4.50;;;18.90;83.00;;;;;;4968263;28;20852;-64
2021/04/29 12:10:58;;;;;;;5.60;4.97;;;20.80;75.80;;;;;;4968504;28;20455;-64
2021/04/29 12:13:32;;;;;;;5.17;4.77;;;23.30;68.30;;;;;;4968434;28;20435;-64
2021/04/29 12:15:59;;;;;;;4.97;4.50;;;23.10;65.20;;;;;;4966252;28;20489;-64
2021/04/29 12:18:25;;;;;;;4.87;4.47;;;22.20;64.60;;;;;;4968247;28;20453;-64
2021/04/29 12:20:51;;;;;;;5.20;4.80;;;21.00;66.90;;;;;;4968641;28;20996;-63
2021/04/29 12:23:17;;;;;;;5.03;4.43;;;20.10;69.80;;;;;;4968633;28;20836;-64
2021/04/29 12:25:54;;;;;;;4.47;4.10;;;19.10;72.00;;;;;;4964471;28;20616;-63
2021/04/29 12:28:19;;;;;;;3.97;3.57;;;18.20;75.30;;;;;;4968201;28;20462;-64
2021/04/29 12:30:46;;;;;;;4.53;4.13;;;17.70;77.70;;;;;;4966801;28;20505;-63
2021/04/29 12:33:20;;;;;;;4.70;4.30;;;17.50;80.40;;;;;;4957757;28;20249;-63
2021/04/29 12:35:46;;;;;;;4.50;4.20;;;17.30;82.30;;;;;;4960402;28;20443;-64
2021/04/29 12:38:18;;;;;;;5.67;4.70;;;17.50;84.10;;;;;;4967298;28;20466;-63
2021/04/29 12:40:44;;;;;;;7.73;5.63;;;17.60;81.90;;;;;;4967483;28;20443;-64
2021/04/29 12:43:23;;;;;;;5.07;4.67;;;17.40;82.50;;;;;;4967744;28;20479;-64
2021/04/29 12:45:50;;;;;;;5.83;5.37;;;17.30;86.90;;;;;;4964909;28;21370;-64